sensor_id;sensor_type;location;lat;lon;timestamp;P1;durP1;ratioP1;P2;durP2;ratioP2
8478;SDS011;4276;49.354;6.804;2023-02-11T00:00:39;48.53;;;37.30;;
8478;SDS011;4276;49.354;6.804;2023-02-11T00:03:07;44.00;;;34.10;;
8478;SDS011;4276;49.354;6.804;2023-02-11T00:05:33;47.42;;;36.78;;
8478;SDS011;4276;49.354;6.804;2023-02-11T00:08:00;45.03;;;34.20;;
8478;SDS011;4276;49.354;6.804;2023-02-11T00:10:26;44.58;;;33.03;;
8478;SDS011;4276;49.354;6.804;2023-02-11T00:12:53;45.70;;;33.28;;
8478;SDS011;4276;49.354;6.804;2023-02-11T00:15:19;41.63;;;32.00;;
8478;SDS011;4276;49.354;6.804;2023-02-11T00:17:46;39.08;;;32.10;;
8478;SDS011;4276;49.354;6.804;2023-02-11T00:20:12;36.97;;;30.20;;
8478;SDS011;4276;49.354;6.804;2023-02-11T00:22:39;40.95;;;31.58;;
8478;SDS011;4276;49.354;6.804;2023-02-11T00:25:05;34.97;;;28.92;;
8478;SDS011;4276;49.354;6.804;2023-02-11T00:27:32;38.22;;;29.73;;
8478;SDS011;4276;49.354;6.804;2023-02-11T00:29:58;36.28;;;28.40;;
8478;SDS011;4276;49.354;6.804;2023-02-11T00:32:27;34.50;;;27.48;;
8478;SDS011;4276;49.354;6.804;2023-02-11T00:34:53;32.20;;;26.83;;
8478;SDS011;4276;49.354;6.804;2023-02-11T00:37:20;38.58;;;28.08;;
8478;SDS011;4276;49.354;6.804;2023-02-11T00:39:47;32.75;;;25.17;;
8478;SDS011;4276;49.354;6.804;2023-02-11T00:42:15;34.22;;;25.83;;
8478;SDS011;4276;49.354;6.804;2023-02-11T00:44:42;33.90;;;28.00;;
8478;SDS011;4276;49.354;6.804;2023-02-11T00:47:08;35.50;;;27.38;;
8478;SDS011;4276;49.354;6.804;2023-02-11T00:49:35;35.50;;;28.27;;
8478;SDS011;4276;49.354;6.804;2023-02-11T00:52:02;34.63;;;28.80;;
8478;SDS011;4276;49.354;6.804;2023-02-11T00:54:28;36.80;;;30.10;;
8478;SDS011;4276;49.354;6.804;2023-02-11T00:56:55;37.88;;;29.05;;
8478;SDS011;4276;49.354;6.804;2023-02-11T00:59:21;39.17;;;30.63;;
8478;SDS011;4276;49.354;6.804;2023-02-11T01:01:48;38.80;;;29.52;;
8478;SDS011;4276;49.354;6.804;2023-02-11T01:04:14;39.58;;;30.75;;
8478;SDS011;4276;49.354;6.804;2023-02-11T01:06:41;38.17;;;30.55;;
8478;SDS011;4276;49.354;6.804;2023-02-11T01:09:07;36.88;;;30.45;;
8478;SDS011;4276;49.354;6.804;2023-02-11T01:11:34;38.85;;;30.58;;
8478;SDS011;4276;49.354;6.804;2023-02-11T01:14:00;38.33;;;29.60;;
8478;SDS011;4276;49.354;6.804;2023-02-11T01:16:27;36.00;;;28.23;;
8478;SDS011;4276;49.354;6.804;2023-02-11T01:18:53;33.88;;;27.42;;
8478;SDS011;4276;49.354;6.804;2023-02-11T01:21:20;37.28;;;28.98;;
8478;SDS011;4276;49.354;6.804;2023-02-11T01:23:46;33.28;;;26.45;;
8478;SDS011;4276;49.354;6.804;2023-02-11T01:26:13;33.72;;;26.35;;
8478;SDS011;4276;49.354;6.804;2023-02-11T01:28:39;31.38;;;25.27;;
8478;SDS011;4276;49.354;6.804;2023-02-11T01:31:06;31.58;;;26.08;;
8478;SDS011;4276;49.354;6.804;2023-02-11T01:33:32;28.83;;;24.23;;
8478;SDS011;4276;49.354;6.804;2023-02-11T01:36:00;30.70;;;25.52;;
8478;SDS011;4276;49.354;6.804;2023-02-11T01:38:28;31.15;;;25.08;;
8478;SDS011;4276;49.354;6.804;2023-02-11T01:40:55;30.20;;;25.05;;
8478;SDS011;4276;49.354;6.804;2023-02-11T01:43:30;31.25;;;25.70;;
8478;SDS011;4276;49.354;6.804;2023-02-11T01:45:59;33.25;;;26.50;;
8478;SDS011;4276;49.354;6.804;2023-02-11T01:48:35;34.05;;;26.45;;
8478;SDS011;4276;49.354;6.804;2023-02-11T01:51:04;34.80;;;27.35;;
8478;SDS011;4276;49.354;6.804;2023-02-11T01:53:34;29.67;;;24.83;;
8478;SDS011;4276;49.354;6.804;2023-02-11T01:56:20;31.98;;;25.90;;
8478;SDS011;4276;49.354;6.804;2023-02-11T01:59:08;34.65;;;27.95;;
8478;SDS011;4276;49.354;6.804;2023-02-11T02:01:38;34.58;;;28.75;;
8478;SDS011;4276;49.354;6.804;2023-02-11T02:04:05;39.17;;;30.40;;
8478;SDS011;4276;49.354;6.804;2023-02-11T02:06:34;36.47;;;29.42;;
8478;SDS011;4276;49.354;6.804;2023-02-11T02:09:18;35.30;;;27.10;;
8478;SDS011;4276;49.354;6.804;2023-02-11T02:11:47;37.15;;;29.25;;
8478;SDS011;4276;49.354;6.804;2023-02-11T02:14:14;36.13;;;28.55;;
8478;SDS011;4276;49.354;6.804;2023-02-11T02:16:40;37.15;;;27.25;;
8478;SDS011;4276;49.354;6.804;2023-02-11T02:22:05;34.72;;;27.85;;
8478;SDS011;4276;49.354;6.804;2023-02-11T02:32:55;37.28;;;29.83;;
8478;SDS011;4276;49.354;6.804;2023-02-11T02:35:50;40.65;;;32.33;;
8478;SDS011;4276;49.354;6.804;2023-02-11T02:38:32;42.10;;;31.40;;
8478;SDS011;4276;49.354;6.804;2023-02-11T02:41:07;38.70;;;30.38;;
8478;SDS011;4276;49.354;6.804;2023-02-11T02:43:35;35.70;;;29.98;;
8478;SDS011;4276;49.354;6.804;2023-02-11T02:48:39;35.53;;;27.67;;
8478;SDS011;4276;49.354;6.804;2023-02-11T02:51:54;33.88;;;27.52;;
8478;SDS011;4276;49.354;6.804;2023-02-11T02:56:56;32.10;;;26.38;;
8478;SDS011;4276;49.354;6.804;2023-02-11T03:10:18;31.83;;;25.60;;
8478;SDS011;4276;49.354;6.804;2023-02-11T03:12:46;32.67;;;26.50;;
8478;SDS011;4276;49.354;6.804;2023-02-11T03:15:14;33.95;;;27.08;;
8478;SDS011;4276;49.354;6.804;2023-02-11T03:17:43;29.63;;;24.60;;
8478;SDS011;4276;49.354;6.804;2023-02-11T03:20:12;31.08;;;25.25;;
8478;SDS011;4276;49.354;6.804;2023-02-11T03:22:41;32.25;;;24.42;;
8478;SDS011;4276;49.354;6.804;2023-02-11T03:25:10;31.58;;;25.23;;
8478;SDS011;4276;49.354;6.804;2023-02-11T03:27:42;30.35;;;25.13;;
8478;SDS011;4276;49.354;6.804;2023-02-11T03:30:14;32.03;;;26.38;;
8478;SDS011;4276;49.354;6.804;2023-02-11T03:32:48;31.50;;;26.50;;
8478;SDS011;4276;49.354;6.804;2023-02-11T03:35:19;29.00;;;24.70;;
8478;SDS011;4276;49.354;6.804;2023-02-11T03:37:55;30.45;;;24.70;;
8478;SDS011;4276;49.354;6.804;2023-02-11T03:40:30;30.85;;;25.65;;
8478;SDS011;4276;49.354;6.804;2023-02-11T03:43:07;28.73;;;23.83;;
8478;SDS011;4276;49.354;6.804;2023-02-11T03:45:35;28.80;;;24.38;;
8478;SDS011;4276;49.354;6.804;2023-02-11T03:48:04;29.48;;;23.92;;
8478;SDS011;4276;49.354;6.804;2023-02-11T03:50:34;30.60;;;24.95;;
8478;SDS011;4276;49.354;6.804;2023-02-11T03:53:01;30.33;;;23.75;;
8478;SDS011;4276;49.354;6.804;2023-02-11T03:55:28;30.85;;;25.25;;
8478;SDS011;4276;49.354;6.804;2023-02-11T03:57:55;29.70;;;25.17;;
8478;SDS011;4276;49.354;6.804;2023-02-11T04:00:32;28.33;;;24.48;;
8478;SDS011;4276;49.354;6.804;2023-02-11T04:03:01;30.92;;;25.85;;
8478;SDS011;4276;49.354;6.804;2023-02-11T04:05:29;33.30;;;25.77;;
8478;SDS011;4276;49.354;6.804;2023-02-11T04:07:55;32.65;;;27.25;;
8478;SDS011;4276;49.354;6.804;2023-02-11T04:10:22;39.05;;;28.92;;
8478;SDS011;4276;49.354;6.804;2023-02-11T04:12:48;35.92;;;28.10;;
8478;SDS011;4276;49.354;6.804;2023-02-11T04:15:14;34.00;;;27.00;;
8478;SDS011;4276;49.354;6.804;2023-02-11T04:17:41;33.58;;;26.30;;
8478;SDS011;4276;49.354;6.804;2023-02-11T04:20:08;37.28;;;30.20;;
8478;SDS011;4276;49.354;6.804;2023-02-11T04:22:35;34.60;;;28.17;;
8478;SDS011;4276;49.354;6.804;2023-02-11T04:25:02;36.85;;;28.10;;
8478;SDS011;4276;49.354;6.804;2023-02-11T04:27:29;31.88;;;27.08;;
8478;SDS011;4276;49.354;6.804;2023-02-11T04:29:56;37.67;;;29.65;;
8478;SDS011;4276;49.354;6.804;2023-02-11T04:32:22;35.67;;;29.45;;
8478;SDS011;4276;49.354;6.804;2023-02-11T04:34:48;35.22;;;28.45;;
8478;SDS011;4276;49.354;6.804;2023-02-11T04:37:15;33.08;;;27.58;;
8478;SDS011;4276;49.354;6.804;2023-02-11T04:39:41;37.05;;;29.48;;
8478;SDS011;4276;49.354;6.804;2023-02-11T04:42:08;33.75;;;27.73;;
8478;SDS011;4276;49.354;6.804;2023-02-11T04:44:34;31.02;;;26.67;;
8478;SDS011;4276;49.354;6.804;2023-02-11T04:47:01;34.00;;;27.42;;
8478;SDS011;4276;49.354;6.804;2023-02-11T04:49:27;32.42;;;26.52;;
8478;SDS011;4276;49.354;6.804;2023-02-11T04:51:56;30.15;;;25.20;;
8478;SDS011;4276;49.354;6.804;2023-02-11T04:54:23;35.53;;;26.92;;
8478;SDS011;4276;49.354;6.804;2023-02-11T04:56:49;34.63;;;28.67;;
8478;SDS011;4276;49.354;6.804;2023-02-11T04:59:16;37.60;;;29.58;;
8478;SDS011;4276;49.354;6.804;2023-02-11T05:01:42;33.88;;;28.30;;
8478;SDS011;4276;49.354;6.804;2023-02-11T05:04:09;36.50;;;29.63;;
8478;SDS011;4276;49.354;6.804;2023-02-11T05:06:37;34.72;;;28.05;;
8478;SDS011;4276;49.354;6.804;2023-02-11T05:09:04;37.13;;;28.77;;
8478;SDS011;4276;49.354;6.804;2023-02-11T05:11:31;37.70;;;30.23;;
8478;SDS011;4276;49.354;6.804;2023-02-11T05:13:57;34.47;;;28.15;;
8478;SDS011;4276;49.354;6.804;2023-02-11T05:16:23;35.05;;;28.05;;
8478;SDS011;4276;49.354;6.804;2023-02-11T05:18:50;32.15;;;26.25;;
8478;SDS011;4276;49.354;6.804;2023-02-11T05:21:18;30.65;;;26.42;;
8478;SDS011;4276;49.354;6.804;2023-02-11T05:23:45;31.42;;;26.45;;
8478;SDS011;4276;49.354;6.804;2023-02-11T05:26:11;34.42;;;25.38;;
8478;SDS011;4276;49.354;6.804;2023-02-11T05:28:38;34.35;;;27.60;;
8478;SDS011;4276;49.354;6.804;2023-02-11T05:31:05;31.25;;;25.98;;
8478;SDS011;4276;49.354;6.804;2023-02-11T05:33:32;31.48;;;26.35;;
8478;SDS011;4276;49.354;6.804;2023-02-11T05:36:03;31.27;;;25.38;;
8478;SDS011;4276;49.354;6.804;2023-02-11T05:38:31;31.50;;;26.25;;
8478;SDS011;4276;49.354;6.804;2023-02-11T05:40:58;30.13;;;25.65;;
8478;SDS011;4276;49.354;6.804;2023-02-11T05:43:24;31.58;;;25.92;;
8478;SDS011;4276;49.354;6.804;2023-02-11T05:45:51;33.67;;;26.30;;
8478;SDS011;4276;49.354;6.804;2023-02-11T05:48:18;31.40;;;26.10;;
8478;SDS011;4276;49.354;6.804;2023-02-11T05:50:44;33.10;;;26.95;;
8478;SDS011;4276;49.354;6.804;2023-02-11T05:53:11;33.45;;;26.15;;
8478;SDS011;4276;49.354;6.804;2023-02-11T05:55:38;30.65;;;26.05;;
8478;SDS011;4276;49.354;6.804;2023-02-11T05:58:04;27.58;;;24.02;;
8478;SDS011;4276;49.354;6.804;2023-02-11T06:00:31;27.05;;;24.15;;
8478;SDS011;4276;49.354;6.804;2023-02-11T06:02:58;27.85;;;23.90;;
8478;SDS011;4276;49.354;6.804;2023-02-11T06:05:25;26.92;;;22.63;;
8478;SDS011;4276;49.354;6.804;2023-02-11T06:07:51;26.58;;;21.98;;
8478;SDS011;4276;49.354;6.804;2023-02-11T06:10:18;26.15;;;22.08;;
8478;SDS011;4276;49.354;6.804;2023-02-11T06:12:44;27.45;;;23.35;;
8478;SDS011;4276;49.354;6.804;2023-02-11T06:15:11;27.77;;;22.67;;
8478;SDS011;4276;49.354;6.804;2023-02-11T06:17:37;27.25;;;21.20;;
8478;SDS011;4276;49.354;6.804;2023-02-11T06:20:05;27.85;;;21.77;;
8478;SDS011;4276;49.354;6.804;2023-02-11T06:22:32;31.25;;;23.27;;
8478;SDS011;4276;49.354;6.804;2023-02-11T06:25:00;27.02;;;22.52;;
8478;SDS011;4276;49.354;6.804;2023-02-11T06:27:27;27.27;;;23.08;;
8478;SDS011;4276;49.354;6.804;2023-02-11T06:29:54;27.85;;;24.02;;
8478;SDS011;4276;49.354;6.804;2023-02-11T06:32:21;26.48;;;22.38;;
8478;SDS011;4276;49.354;6.804;2023-02-11T06:35:07;27.52;;;22.00;;
8478;SDS011;4276;49.354;6.804;2023-02-11T06:37:37;26.20;;;21.73;;
8478;SDS011;4276;49.354;6.804;2023-02-11T06:40:03;26.25;;;22.42;;
8478;SDS011;4276;49.354;6.804;2023-02-11T06:42:30;25.08;;;21.70;;
8478;SDS011;4276;49.354;6.804;2023-02-11T06:44:56;23.80;;;20.95;;
8478;SDS011;4276;49.354;6.804;2023-02-11T06:47:23;24.10;;;21.38;;
8478;SDS011;4276;49.354;6.804;2023-02-11T06:49:49;24.80;;;21.98;;
8478;SDS011;4276;49.354;6.804;2023-02-11T06:52:16;24.42;;;21.02;;
8478;SDS011;4276;49.354;6.804;2023-02-11T06:54:42;28.05;;;22.42;;
8478;SDS011;4276;49.354;6.804;2023-02-11T06:57:09;24.00;;;21.40;;
8478;SDS011;4276;49.354;6.804;2023-02-11T06:59:35;25.60;;;22.23;;
8478;SDS011;4276;49.354;6.804;2023-02-11T07:02:01;25.73;;;20.33;;
8478;SDS011;4276;49.354;6.804;2023-02-11T07:04:28;23.45;;;20.98;;
8478;SDS011;4276;49.354;6.804;2023-02-11T07:06:54;26.40;;;21.63;;
8478;SDS011;4276;49.354;6.804;2023-02-11T07:09:21;24.17;;;21.05;;
8478;SDS011;4276;49.354;6.804;2023-02-11T07:11:47;22.20;;;19.77;;
8478;SDS011;4276;49.354;6.804;2023-02-11T07:14:14;25.00;;;21.77;;
8478;SDS011;4276;49.354;6.804;2023-02-11T07:16:40;26.15;;;22.08;;
8478;SDS011;4276;49.354;6.804;2023-02-11T07:19:07;26.30;;;21.27;;
8478;SDS011;4276;49.354;6.804;2023-02-11T07:21:33;24.73;;;20.63;;
8478;SDS011;4276;49.354;6.804;2023-02-11T07:24:00;23.83;;;21.27;;
8478;SDS011;4276;49.354;6.804;2023-02-11T07:26:27;24.85;;;22.15;;
8478;SDS011;4276;49.354;6.804;2023-02-11T07:28:54;24.67;;;21.33;;
8478;SDS011;4276;49.354;6.804;2023-02-11T07:31:23;28.85;;;24.30;;
8478;SDS011;4276;49.354;6.804;2023-02-11T07:33:51;26.38;;;22.85;;
8478;SDS011;4276;49.354;6.804;2023-02-11T07:36:19;28.13;;;23.27;;
8478;SDS011;4276;49.354;6.804;2023-02-11T07:38:46;26.90;;;23.48;;
8478;SDS011;4276;49.354;6.804;2023-02-11T07:41:13;26.40;;;23.58;;
8478;SDS011;4276;49.354;6.804;2023-02-11T07:43:41;27.17;;;23.83;;
8478;SDS011;4276;49.354;6.804;2023-02-11T07:46:19;27.05;;;21.20;;
8478;SDS011;4276;49.354;6.804;2023-02-11T07:48:46;26.70;;;22.25;;
8478;SDS011;4276;49.354;6.804;2023-02-11T07:53:56;26.92;;;21.85;;
8478;SDS011;4276;49.354;6.804;2023-02-11T07:56:24;27.02;;;21.27;;
8478;SDS011;4276;49.354;6.804;2023-02-11T07:58:51;29.63;;;21.60;;
8478;SDS011;4276;49.354;6.804;2023-02-11T08:01:19;25.48;;;21.33;;
8478;SDS011;4276;49.354;6.804;2023-02-11T08:03:51;26.25;;;20.73;;
8478;SDS011;4276;49.354;6.804;2023-02-11T08:06:18;23.60;;;20.40;;
8478;SDS011;4276;49.354;6.804;2023-02-11T08:08:45;25.33;;;21.38;;
8478;SDS011;4276;49.354;6.804;2023-02-11T08:11:14;23.17;;;20.10;;
8478;SDS011;4276;49.354;6.804;2023-02-11T08:13:42;22.67;;;19.33;;
8478;SDS011;4276;49.354;6.804;2023-02-11T08:16:16;26.45;;;20.35;;
8478;SDS011;4276;49.354;6.804;2023-02-11T08:18:44;22.38;;;19.73;;
8478;SDS011;4276;49.354;6.804;2023-02-11T08:21:10;24.63;;;21.23;;
8478;SDS011;4276;49.354;6.804;2023-02-11T08:23:38;22.45;;;18.98;;
8478;SDS011;4276;49.354;6.804;2023-02-11T08:26:07;22.83;;;19.75;;
8478;SDS011;4276;49.354;6.804;2023-02-11T08:28:36;22.25;;;19.63;;
8478;SDS011;4276;49.354;6.804;2023-02-11T08:31:07;22.05;;;19.30;;
8478;SDS011;4276;49.354;6.804;2023-02-11T08:33:40;24.17;;;20.02;;
8478;SDS011;4276;49.354;6.804;2023-02-11T08:36:08;22.02;;;18.40;;
8478;SDS011;4276;49.354;6.804;2023-02-11T08:38:35;19.77;;;17.67;;
8478;SDS011;4276;49.354;6.804;2023-02-11T08:41:02;21.13;;;17.92;;
8478;SDS011;4276;49.354;6.804;2023-02-11T08:43:30;20.35;;;17.35;;
8478;SDS011;4276;49.354;6.804;2023-02-11T08:45:56;19.75;;;16.45;;
8478;SDS011;4276;49.354;6.804;2023-02-11T08:48:27;19.98;;;17.65;;
8478;SDS011;4276;49.354;6.804;2023-02-11T08:50:54;18.20;;;16.08;;
8478;SDS011;4276;49.354;6.804;2023-02-11T08:53:21;20.98;;;18.13;;
8478;SDS011;4276;49.354;6.804;2023-02-11T08:55:51;19.42;;;16.27;;
8478;SDS011;4276;49.354;6.804;2023-02-11T08:58:19;18.00;;;15.75;;
8478;SDS011;4276;49.354;6.804;2023-02-11T09:00:46;18.30;;;15.88;;
8478;SDS011;4276;49.354;6.804;2023-02-11T09:03:15;18.75;;;14.70;;
8478;SDS011;4276;49.354;6.804;2023-02-11T09:05:46;18.88;;;15.85;;
8478;SDS011;4276;49.354;6.804;2023-02-11T09:08:13;17.20;;;15.32;;
8478;SDS011;4276;49.354;6.804;2023-02-11T09:10:39;18.42;;;15.30;;
8478;SDS011;4276;49.354;6.804;2023-02-11T09:13:06;18.50;;;16.58;;
8478;SDS011;4276;49.354;6.804;2023-02-11T09:15:33;20.35;;;16.70;;
8478;SDS011;4276;49.354;6.804;2023-02-11T09:18:00;16.90;;;15.10;;
8478;SDS011;4276;49.354;6.804;2023-02-11T09:20:27;19.63;;;16.15;;
8478;SDS011;4276;49.354;6.804;2023-02-11T09:22:53;22.02;;;18.55;;
8478;SDS011;4276;49.354;6.804;2023-02-11T09:25:22;18.90;;;16.55;;
8478;SDS011;4276;49.354;6.804;2023-02-11T09:27:49;19.42;;;15.40;;
8478;SDS011;4276;49.354;6.804;2023-02-11T09:30:16;17.83;;;15.93;;
8478;SDS011;4276;49.354;6.804;2023-02-11T09:32:43;18.73;;;15.73;;
8478;SDS011;4276;49.354;6.804;2023-02-11T09:35:09;19.85;;;15.80;;
8478;SDS011;4276;49.354;6.804;2023-02-11T09:37:35;19.55;;;15.98;;
8478;SDS011;4276;49.354;6.804;2023-02-11T09:40:03;20.75;;;18.55;;
8478;SDS011;4276;49.354;6.804;2023-02-11T09:42:41;20.08;;;15.82;;
8478;SDS011;4276;49.354;6.804;2023-02-11T09:45:21;20.20;;;16.92;;
8478;SDS011;4276;49.354;6.804;2023-02-11T09:48:00;19.23;;;16.05;;
8478;SDS011;4276;49.354;6.804;2023-02-11T09:50:35;18.52;;;15.82;;
8478;SDS011;4276;49.354;6.804;2023-02-11T09:53:24;21.40;;;16.63;;
8478;SDS011;4276;49.354;6.804;2023-02-11T09:55:58;20.25;;;17.23;;
8478;SDS011;4276;49.354;6.804;2023-02-11T09:58:28;21.58;;;16.90;;
8478;SDS011;4276;49.354;6.804;2023-02-11T10:01:20;21.58;;;17.50;;
8478;SDS011;4276;49.354;6.804;2023-02-11T10:06:44;20.60;;;16.73;;
8478;SDS011;4276;49.354;6.804;2023-02-11T10:23:17;23.85;;;20.15;;
8478;SDS011;4276;49.354;6.804;2023-02-11T10:25:50;23.17;;;20.23;;
8478;SDS011;4276;49.354;6.804;2023-02-11T10:28:20;22.00;;;19.60;;
8478;SDS011;4276;49.354;6.804;2023-02-11T10:33:48;24.27;;;20.33;;
8478;SDS011;4276;49.354;6.804;2023-02-11T10:36:40;25.30;;;20.10;;
8478;SDS011;4276;49.354;6.804;2023-02-11T10:39:10;21.35;;;17.73;;
8478;SDS011;4276;49.354;6.804;2023-02-11T10:44:24;20.67;;;16.75;;
8478;SDS011;4276;49.354;6.804;2023-02-11T10:46:52;20.73;;;16.58;;
8478;SDS011;4276;49.354;6.804;2023-02-11T10:49:36;21.15;;;17.63;;
8478;SDS011;4276;49.354;6.804;2023-02-11T10:52:14;23.10;;;18.73;;
8478;SDS011;4276;49.354;6.804;2023-02-11T10:57:51;23.30;;;18.50;;
8478;SDS011;4276;49.354;6.804;2023-02-11T11:03:01;20.52;;;16.88;;
8478;SDS011;4276;49.354;6.804;2023-02-11T11:05:34;21.60;;;16.95;;
8478;SDS011;4276;49.354;6.804;2023-02-11T11:08:03;20.45;;;17.30;;
8478;SDS011;4276;49.354;6.804;2023-02-11T11:10:40;23.40;;;18.13;;
8478;SDS011;4276;49.354;6.804;2023-02-11T11:16:05;19.88;;;17.20;;
8478;SDS011;4276;49.354;6.804;2023-02-11T11:18:38;24.38;;;19.08;;
8478;SDS011;4276;49.354;6.804;2023-02-11T11:21:10;23.33;;;18.83;;
8478;SDS011;4276;49.354;6.804;2023-02-11T11:23:37;28.33;;;21.83;;
8478;SDS011;4276;49.354;6.804;2023-02-11T11:28:51;31.65;;;22.73;;
8478;SDS011;4276;49.354;6.804;2023-02-11T11:31:21;29.42;;;23.33;;
8478;SDS011;4276;49.354;6.804;2023-02-11T11:33:50;26.15;;;21.27;;
8478;SDS011;4276;49.354;6.804;2023-02-11T11:36:23;24.58;;;19.42;;
8478;SDS011;4276;49.354;6.804;2023-02-11T11:38:57;25.08;;;19.45;;
8478;SDS011;4276;49.354;6.804;2023-02-11T11:46:50;32.00;;;24.55;;
8478;SDS011;4276;49.354;6.804;2023-02-11T11:49:32;22.73;;;19.25;;
8478;SDS011;4276;49.354;6.804;2023-02-11T11:52:14;23.15;;;18.13;;
8478;SDS011;4276;49.354;6.804;2023-02-11T11:54:46;23.42;;;18.63;;
8478;SDS011;4276;49.354;6.804;2023-02-11T11:57:19;24.17;;;19.52;;
8478;SDS011;4276;49.354;6.804;2023-02-11T11:59:48;24.25;;;18.52;;
8478;SDS011;4276;49.354;6.804;2023-02-11T12:04:54;22.52;;;19.20;;
8478;SDS011;4276;49.354;6.804;2023-02-11T12:16:14;22.50;;;19.40;;
8478;SDS011;4276;49.354;6.804;2023-02-11T12:24:11;23.67;;;18.17;;
8478;SDS011;4276;49.354;6.804;2023-02-11T12:37:31;23.55;;;19.63;;
8478;SDS011;4276;49.354;6.804;2023-02-11T12:40:15;20.70;;;16.95;;
8478;SDS011;4276;49.354;6.804;2023-02-11T12:42:48;19.55;;;17.13;;
8478;SDS011;4276;49.354;6.804;2023-02-11T12:59:04;20.15;;;16.38;;
8478;SDS011;4276;49.354;6.804;2023-02-11T13:01:38;20.90;;;15.45;;
8478;SDS011;4276;49.354;6.804;2023-02-11T13:06:56;17.83;;;15.55;;
8478;SDS011;4276;49.354;6.804;2023-02-11T13:09:49;17.88;;;15.18;;
8478;SDS011;4276;49.354;6.804;2023-02-11T13:12:16;16.88;;;14.98;;
8478;SDS011;4276;49.354;6.804;2023-02-11T13:15:02;17.55;;;14.90;;
8478;SDS011;4276;49.354;6.804;2023-02-11T13:17:35;16.95;;;13.75;;
8478;SDS011;4276;49.354;6.804;2023-02-11T13:20:14;17.20;;;14.20;;
8478;SDS011;4276;49.354;6.804;2023-02-11T13:22:58;16.17;;;13.95;;
8478;SDS011;4276;49.354;6.804;2023-02-11T13:25:34;14.85;;;12.05;;
8478;SDS011;4276;49.354;6.804;2023-02-11T13:30:53;13.73;;;11.80;;
8478;SDS011;4276;49.354;6.804;2023-02-11T13:33:34;13.93;;;11.65;;
8478;SDS011;4276;49.354;6.804;2023-02-11T13:38:30;13.35;;;11.68;;
8478;SDS011;4276;49.354;6.804;2023-02-11T13:43:31;12.68;;;11.18;;
8478;SDS011;4276;49.354;6.804;2023-02-11T13:45:59;12.20;;;10.82;;
8478;SDS011;4276;49.354;6.804;2023-02-11T13:48:28;13.43;;;11.23;;
8478;SDS011;4276;49.354;6.804;2023-02-11T13:50:59;11.35;;;10.15;;
8478;SDS011;4276;49.354;6.804;2023-02-11T13:56:23;12.23;;;10.65;;
8478;SDS011;4276;49.354;6.804;2023-02-11T13:58:55;11.02;;;9.60;;
8478;SDS011;4276;49.354;6.804;2023-02-11T14:04:34;13.15;;;10.20;;
8478;SDS011;4276;49.354;6.804;2023-02-11T14:23:52;13.35;;;11.55;;
8478;SDS011;4276;49.354;6.804;2023-02-11T14:26:44;12.98;;;10.70;;
8478;SDS011;4276;49.354;6.804;2023-02-11T14:29:17;12.38;;;10.63;;
8478;SDS011;4276;49.354;6.804;2023-02-11T14:32:04;13.90;;;11.40;;
8478;SDS011;4276;49.354;6.804;2023-02-11T14:37:30;14.32;;;11.77;;
8478;SDS011;4276;49.354;6.804;2023-02-11T14:43:25;15.75;;;12.75;;
8478;SDS011;4276;49.354;6.804;2023-02-11T14:45:55;16.02;;;12.27;;
8478;SDS011;4276;49.354;6.804;2023-02-11T14:48:26;14.75;;;12.23;;
8478;SDS011;4276;49.354;6.804;2023-02-11T14:53:42;15.18;;;12.38;;
8478;SDS011;4276;49.354;6.804;2023-02-11T14:56:21;16.00;;;12.95;;
8478;SDS011;4276;49.354;6.804;2023-02-11T14:58:51;17.40;;;13.45;;
8478;SDS011;4276;49.354;6.804;2023-02-11T15:01:23;16.08;;;13.55;;
8478;SDS011;4276;49.354;6.804;2023-02-11T15:03:59;15.68;;;13.10;;
8478;SDS011;4276;49.354;6.804;2023-02-11T15:06:38;15.43;;;13.10;;
8478;SDS011;4276;49.354;6.804;2023-02-11T15:12:14;16.58;;;14.45;;
8478;SDS011;4276;49.354;6.804;2023-02-11T15:14:47;33.03;;;24.85;;
8478;SDS011;4276;49.354;6.804;2023-02-11T15:17:15;19.95;;;15.75;;
8478;SDS011;4276;49.354;6.804;2023-02-11T15:19:45;16.15;;;14.02;;
8478;SDS011;4276;49.354;6.804;2023-02-11T15:22:17;19.80;;;14.27;;
8478;SDS011;4276;49.354;6.804;2023-02-11T15:33:05;17.13;;;14.30;;
8478;SDS011;4276;49.354;6.804;2023-02-11T15:35:33;17.73;;;14.80;;
8478;SDS011;4276;49.354;6.804;2023-02-11T15:38:02;15.23;;;13.52;;
8478;SDS011;4276;49.354;6.804;2023-02-11T15:40:30;16.95;;;14.70;;
8478;SDS011;4276;49.354;6.804;2023-02-11T15:42:59;18.55;;;14.38;;
8478;SDS011;4276;49.354;6.804;2023-02-11T15:45:41;17.05;;;15.20;;
8478;SDS011;4276;49.354;6.804;2023-02-11T15:48:16;19.02;;;15.80;;
8478;SDS011;4276;49.354;6.804;2023-02-11T15:50:52;19.90;;;16.38;;
8478;SDS011;4276;49.354;6.804;2023-02-11T15:53:22;20.30;;;15.57;;
8478;SDS011;4276;49.354;6.804;2023-02-11T15:55:54;22.50;;;17.48;;
8478;SDS011;4276;49.354;6.804;2023-02-11T15:58:27;23.33;;;17.88;;
8478;SDS011;4276;49.354;6.804;2023-02-11T16:00:53;22.58;;;17.30;;
8478;SDS011;4276;49.354;6.804;2023-02-11T16:03:25;20.95;;;17.20;;
8478;SDS011;4276;49.354;6.804;2023-02-11T16:06:13;21.42;;;16.23;;
8478;SDS011;4276;49.354;6.804;2023-02-11T16:09:00;21.27;;;17.70;;
8478;SDS011;4276;49.354;6.804;2023-02-11T16:11:31;20.13;;;17.23;;
8478;SDS011;4276;49.354;6.804;2023-02-11T16:14:00;20.10;;;17.70;;
8478;SDS011;4276;49.354;6.804;2023-02-11T16:16:30;21.15;;;17.58;;
8478;SDS011;4276;49.354;6.804;2023-02-11T16:18:59;19.25;;;16.38;;
8478;SDS011;4276;49.354;6.804;2023-02-11T16:21:35;23.67;;;17.27;;
8478;SDS011;4276;49.354;6.804;2023-02-11T16:24:13;22.90;;;19.20;;
8478;SDS011;4276;49.354;6.804;2023-02-11T16:26:45;21.88;;;17.75;;
8478;SDS011;4276;49.354;6.804;2023-02-11T16:29:15;20.85;;;16.55;;
8478;SDS011;4276;49.354;6.804;2023-02-11T16:31:43;22.27;;;17.52;;
8478;SDS011;4276;49.354;6.804;2023-02-11T16:34:19;20.55;;;16.13;;
8478;SDS011;4276;49.354;6.804;2023-02-11T16:36:47;24.13;;;17.60;;
8478;SDS011;4276;49.354;6.804;2023-02-11T16:39:14;22.92;;;16.90;;
8478;SDS011;4276;49.354;6.804;2023-02-11T16:41:42;20.75;;;17.35;;
8478;SDS011;4276;49.354;6.804;2023-02-11T16:44:08;23.40;;;17.90;;
8478;SDS011;4276;49.354;6.804;2023-02-11T16:46:35;22.92;;;17.73;;
8478;SDS011;4276;49.354;6.804;2023-02-11T16:49:09;23.77;;;18.45;;
8478;SDS011;4276;49.354;6.804;2023-02-11T16:51:45;22.75;;;17.70;;
8478;SDS011;4276;49.354;6.804;2023-02-11T16:54:13;22.95;;;17.75;;
8478;SDS011;4276;49.354;6.804;2023-02-11T16:56:41;24.15;;;18.58;;
8478;SDS011;4276;49.354;6.804;2023-02-11T16:59:08;23.40;;;18.58;;
8478;SDS011;4276;49.354;6.804;2023-02-11T17:01:35;24.27;;;19.02;;
8478;SDS011;4276;49.354;6.804;2023-02-11T17:04:03;35.58;;;28.08;;
8478;SDS011;4276;49.354;6.804;2023-02-11T17:06:32;38.50;;;29.73;;
8478;SDS011;4276;49.354;6.804;2023-02-11T17:08:59;27.15;;;21.70;;
8478;SDS011;4276;49.354;6.804;2023-02-11T17:11:25;26.48;;;20.85;;
8478;SDS011;4276;49.354;6.804;2023-02-11T17:13:51;26.60;;;21.33;;
8478;SDS011;4276;49.354;6.804;2023-02-11T17:16:19;26.50;;;21.00;;
8478;SDS011;4276;49.354;6.804;2023-02-11T17:18:48;29.73;;;22.50;;
8478;SDS011;4276;49.354;6.804;2023-02-11T17:21:14;26.65;;;21.80;;
8478;SDS011;4276;49.354;6.804;2023-02-11T17:23:41;26.10;;;20.73;;
8478;SDS011;4276;49.354;6.804;2023-02-11T17:26:08;22.25;;;18.10;;
8478;SDS011;4276;49.354;6.804;2023-02-11T17:28:34;22.48;;;17.73;;
8478;SDS011;4276;49.354;6.804;2023-02-11T17:31:01;27.00;;;20.73;;
8478;SDS011;4276;49.354;6.804;2023-02-11T17:33:32;42.78;;;29.35;;
8478;SDS011;4276;49.354;6.804;2023-02-11T17:36:05;29.42;;;22.42;;
8478;SDS011;4276;49.354;6.804;2023-02-11T17:38:33;26.83;;;20.35;;
8478;SDS011;4276;49.354;6.804;2023-02-11T17:41:00;25.60;;;18.65;;
8478;SDS011;4276;49.354;6.804;2023-02-11T17:43:27;23.88;;;17.90;;
8478;SDS011;4276;49.354;6.804;2023-02-11T17:45:53;33.90;;;24.42;;
8478;SDS011;4276;49.354;6.804;2023-02-11T17:48:20;27.52;;;20.83;;